Terminal Aerodrome Forecast
Issued by NWS Twin Cities, MN

Home | Current Version | Previous Version | Graphics & Text | Print | Product List | Glossary On
Versions: 1 2 3 4 5 6 7 8 9 10 11 12 13 14
000
FTUS43 KMPX 240520
TAFSTC
TAF
KSTC 240520Z 2406/2506 01007KT P6SM SCT030 OVC060
     FM241000 01005KT P6SM BKN015 OVC025
     FM241800 04006KT P6SM SCT025 BKN050
     FM250000 08004KT P6SM SCT050=

USA.gov is the U.S. government's official web portal to all federal, state and local government web resources and services.